Time;durP1;ratioP1;P1;durP2;ratioP2;P2;SDS_P1;SDS_P2;PMS_P1;PMS_P2;Temp;Humidity;BMP_temperature;BMP_pressure;BME280_temperature;BME280_humidity;BME280_pressure;Samples;Min_cycle;Max_cycle;Signal;HPM_P1;HPM_P2
2023/08/08 00:00:46;;;;;;;9.30;4.32;;;;;9.40;96405.00;;;;8289568;28;20229;-73
2023/08/08 00:04:54;;;;;;;10.70;4.43;;;;;9.40;96409.00;;;;8310744;28;20225;-72
2023/08/08 00:08:58;;;;;;;11.48;4.60;;;;;9.50;96402.00;;;;8307997;28;20936;-74
2023/08/08 00:13:05;;;;;;;8.13;4.78;;;;;9.50;96399.00;;;;8296695;28;20285;-71
2023/08/08 00:17:09;;;;;;;11.67;5.30;;;;;9.60;96389.00;;;;8305763;28;20289;-72
2023/08/08 00:21:12;;;;;;;9.85;4.90;;;;;9.60;96390.00;;;;8305533;28;20611;-71
2023/08/08 00:25:17;;;;;;;7.20;4.85;;;;;9.60;96380.00;;;;8301532;28;20217;-72
2023/08/08 00:29:21;;;;;;;9.38;5.15;;;;;9.60;96384.00;;;;8309994;28;20285;-71
2023/08/08 00:33:31;;;;;;;10.15;5.43;;;;;9.60;96386.00;;;;8312058;28;20256;-71
2023/08/08 00:37:34;;;;;;;10.13;5.15;;;;;9.70;96383.00;;;;8303876;28;20212;-71
2023/08/08 00:41:39;;;;;;;11.38;5.28;;;;;9.80;96375.00;;;;8306853;28;20237;-72
2023/08/08 00:45:45;;;;;;;10.60;4.82;;;;;9.90;96376.00;;;;8307800;28;20313;-72
2023/08/08 00:49:52;;;;;;;8.55;4.82;;;;;10.00;96380.00;;;;8307153;28;20208;-71
2023/08/08 00:53:56;;;;;;;7.70;4.93;;;;;10.20;96375.00;;;;8310376;28;20249;-72
2023/08/08 00:58:10;;;;;;;7.32;4.50;;;;;10.30;96376.00;;;;8317738;28;20209;-71
2023/08/08 01:02:15;;;;;;;9.95;5.25;;;;;10.40;96383.00;;;;8314417;28;20233;-71
2023/08/08 01:06:24;;;;;;;9.75;5.18;;;;;10.50;96379.00;;;;8309597;28;20253;-73
2023/08/08 01:10:33;;;;;;;10.95;4.97;;;;;10.60;96384.00;;;;8312160;28;20221;-71
2023/08/08 01:14:41;;;;;;;9.10;4.50;;;;;10.60;96385.00;;;;8315652;28;20241;-72
2023/08/08 01:18:47;;;;;;;13.15;5.00;;;;;10.80;96374.00;;;;8317372;28;20684;-71
2023/08/08 01:22:59;;;;;;;7.07;4.68;;;;;10.80;96365.00;;;;8309706;28;20301;-73
2023/08/08 01:27:05;;;;;;;5.43;4.50;;;;;10.90;96375.00;;;;8310294;28;20253;-72
2023/08/08 01:31:08;;;;;;;10.20;4.85;;;;;10.90;96370.00;;;;8304369;28;20239;-71
2023/08/08 01:35:12;;;;;;;7.32;4.18;;;;;11.00;96374.00;;;;8308732;28;20290;-71
2023/08/08 01:39:21;;;;;;;9.80;4.57;;;;;11.00;96372.00;;;;8308755;28;20210;-72
2023/08/08 01:43:26;;;;;;;7.43;4.20;;;;;11.00;96372.00;;;;8309389;28;20198;-74
2023/08/08 01:47:29;;;;;;;7.35;4.82;;;;;11.10;96385.00;;;;8307171;28;20630;-72
2023/08/08 01:51:35;;;;;;;9.90;4.88;;;;;11.10;96377.00;;;;8315759;28;20194;-73
2023/08/08 01:55:39;;;;;;;8.00;4.65;;;;;11.20;96367.00;;;;8313041;28;20673;-72
2023/08/08 01:59:46;;;;;;;8.40;4.90;;;;;11.30;96369.00;;;;8308821;28;20261;-73
2023/08/08 02:03:57;;;;;;;7.10;4.60;;;;;11.40;96367.00;;;;8306250;28;20231;-72
2023/08/08 02:08:01;;;;;;;6.57;4.60;;;;;11.40;96375.00;;;;8307578;28;20253;-73
2023/08/08 02:12:05;;;;;;;5.15;4.05;;;;;11.50;96373.00;;;;8314768;28;20643;-76
2023/08/08 02:16:14;;;;;;;8.20;4.28;;;;;11.50;96367.00;;;;8314623;28;20231;-71
2023/08/08 02:20:20;;;;;;;6.75;4.30;;;;;11.50;96370.00;;;;8312937;28;20204;-71
2023/08/08 02:24:25;;;;;;;8.25;4.60;;;;;11.50;96353.00;;;;8308146;28;20210;-71
2023/08/08 02:28:28;;;;;;;6.25;4.22;;;;;11.50;96354.00;;;;8306101;28;20233;-76
2023/08/08 02:32:34;;;;;;;8.00;4.55;;;;;11.50;96352.00;;;;8303978;28;20202;-70
2023/08/08 02:36:38;;;;;;;6.93;4.43;;;;;11.50;96351.00;;;;8312184;28;20208;-74
2023/08/08 02:40:45;;;;;;;8.63;4.43;;;;;11.60;96351.00;;;;8308874;28;20285;-73
2023/08/08 02:44:48;;;;;;;8.43;4.20;;;;;11.60;96353.00;;;;8306785;28;20276;-72
2023/08/08 02:48:54;;;;;;;7.85;4.20;;;;;11.60;96349.00;;;;8308540;28;20243;-71
2023/08/08 02:53:00;;;;;;;9.60;4.88;;;;;11.60;96344.00;;;;8305948;28;20232;-68
2023/08/08 02:57:03;;;;;;;5.90;4.07;;;;;11.60;96353.00;;;;8306599;28;20280;-73
2023/08/08 03:01:06;;;;;;;6.13;4.35;;;;;11.60;96356.00;;;;8327527;22;20234;-71
2023/08/08 03:05:11;;;;;;;5.97;4.20;;;;;11.60;96360.00;;;;8353920;23;20309;-69
2023/08/08 03:09:14;;;;;;;5.25;4.07;;;;;11.60;96359.00;;;;8342459;28;20322;-73
2023/08/08 03:13:22;;;;;;;6.88;4.10;;;;;11.60;96356.00;;;;8317543;28;20207;-73
2023/08/08 03:17:27;;;;;;;11.02;4.32;;;;;11.60;96350.00;;;;8313898;28;20258;-71
2023/08/08 03:21:35;;;;;;;5.93;3.80;;;;;11.50;96349.00;;;;8324300;28;20200;-74
2023/08/08 03:25:41;;;;;;;8.68;4.28;;;;;11.50;96353.00;;;;8310912;28;20205;-70
2023/08/08 03:29:46;;;;;;;7.10;4.00;;;;;11.50;96359.00;;;;8328260;28;20280;-68
2023/08/08 03:33:51;;;;;;;6.05;4.00;;;;;11.60;96357.00;;;;8302991;28;20237;-73
2023/08/08 03:37:56;;;;;;;7.15;4.03;;;;;11.60;96357.00;;;;8303954;28;20229;-77
2023/08/08 03:41:59;;;;;;;6.28;3.70;;;;;11.60;96354.00;;;;8306306;28;20224;-69
2023/08/08 03:46:03;;;;;;;10.88;4.30;;;;;11.70;96350.00;;;;8306069;28;20223;-71
2023/08/08 03:50:13;;;;;;;5.97;3.75;;;;;11.70;96347.00;;;;8310401;28;20717;-69
2023/08/08 03:54:20;;;;;;;7.40;4.00;;;;;11.80;96350.00;;;;8299402;28;20277;-72
2023/08/08 03:58:23;;;;;;;9.05;4.70;;;;;11.80;96350.00;;;;8296332;28;20205;-76
2023/08/08 04:02:29;;;;;;;7.45;3.55;;;;;11.80;96359.00;;;;8296389;28;20241;-70
2023/08/08 04:06:32;;;;;;;5.80;4.07;;;;;11.80;96359.00;;;;8329974;28;20225;-70
2023/08/08 04:10:37;;;;;;;8.85;3.95;;;;;11.90;96355.00;;;;8323526;28;20197;-78
2023/08/08 04:14:40;;;;;;;4.72;4.00;;;;;12.00;96358.00;;;;8328863;28;20328;-72
2023/08/08 04:18:43;;;;;;;5.43;3.97;;;;;12.10;96365.00;;;;8326115;28;20213;-72
2023/08/08 04:22:46;;;;;;;7.82;3.92;;;;;12.10;96373.00;;;;8335890;28;20201;-71
2023/08/08 04:26:54;;;;;;;5.22;3.72;;;;;12.10;96374.00;;;;8324106;28;20235;-71
2023/08/08 04:30:57;;;;;;;7.30;3.90;;;;;12.20;96364.00;;;;8326287;28;20213;-69
2023/08/08 04:35:00;;;;;;;8.18;3.72;;;;;12.30;96373.00;;;;8324805;28;20212;-72
2023/08/08 04:39:04;;;;;;;7.88;3.47;;;;;12.40;96376.00;;;;8318202;28;20193;-66
2023/08/08 04:43:11;;;;;;;7.10;3.63;;;;;12.50;96375.00;;;;8331425;28;20283;-66
2023/08/08 04:47:14;;;;;;;7.97;3.30;;;;;12.50;96386.00;;;;8328668;28;20251;-76
2023/08/08 04:51:17;;;;;;;7.00;3.53;;;;;12.60;96373.00;;;;8328548;28;20201;-68
2023/08/08 04:55:23;;;;;;;6.80;3.30;;;;;12.60;96369.00;;;;8342048;28;20287;-72
2023/08/08 04:59:32;;;;;;;8.77;3.58;;;;;12.60;96375.00;;;;8336992;28;20278;-72
2023/08/08 05:03:35;;;;;;;3.60;3.10;;;;;12.60;96378.00;;;;8344638;28;20227;-72
2023/08/08 05:07:39;;;;;;;5.65;2.85;;;;;12.60;96380.00;;;;8344846;28;20310;-68
2023/08/08 05:11:42;;;;;;;7.93;3.45;;;;;12.50;96380.00;;;;8347134;28;20283;-68
2023/08/08 05:15:47;;;;;;;5.40;3.53;;;;;12.50;96375.00;;;;8335653;28;20645;-72
2023/08/08 05:19:53;;;;;;;6.00;3.15;;;;;12.60;96385.00;;;;8327842;28;20203;-72
2023/08/08 05:23:56;;;;;;;7.53;3.28;;;;;12.70;96381.00;;;;8351752;28;20292;-69
2023/08/08 05:27:59;;;;;;;8.80;3.10;;;;;12.90;96385.00;;;;8349196;28;20260;-69
2023/08/08 05:32:06;;;;;;;3.90;3.25;;;;;13.10;96386.00;;;;8327826;28;20725;-74
2023/08/08 05:36:12;;;;;;;12.60;3.72;;;;;13.30;96387.00;;;;8329234;28;20813;-68
2023/08/08 05:40:17;;;;;;;10.05;4.00;;;;;13.50;96387.00;;;;8342172;28;20265;-71
2023/08/08 05:44:22;;;;;;;8.20;3.25;;;;;13.70;96381.00;;;;8328838;28;20205;-76
2023/08/08 05:48:34;;;;;;;4.43;3.20;;;;;13.90;96383.00;;;;8330435;28;20224;-70
2023/08/08 05:52:38;;;;;;;3.88;3.38;;;;;14.00;96383.00;;;;8318963;28;20288;-71
2023/08/08 05:56:41;;;;;;;4.85;3.20;;;;;14.10;96389.00;;;;8342848;28;20213;-71
2023/08/08 06:00:44;;;;;;;3.67;2.63;;;;;14.30;96381.00;;;;8328689;28;20221;-71
2023/08/08 06:04:57;;;;;;;2.75;2.55;;;;;14.40;96381.00;;;;8324835;28;20316;-72
2023/08/08 06:09:04;;;;;;;8.25;2.80;;;;;14.60;96379.00;;;;8320464;28;20237;-72
2023/08/08 06:13:07;;;;;;;5.57;2.50;;;;;14.70;96378.00;;;;8306565;28;20286;-70
2023/08/08 06:17:11;;;;;;;3.35;2.45;;;;;14.90;96380.00;;;;8337845;28;20319;-69
2023/08/08 06:21:15;;;;;;;4.10;2.13;;;;;15.20;96372.00;;;;8335585;28;20197;-70
2023/08/08 06:25:19;;;;;;;2.22;2.13;;;;;15.40;96378.00;;;;8332468;28;20268;-71
2023/08/08 06:29:22;;;;;;;2.00;1.90;;;;;15.60;96368.00;;;;8335300;28;20879;-68
2023/08/08 06:33:26;;;;;;;2.33;2.00;;;;;15.80;96368.00;;;;8339773;28;20201;-69
2023/08/08 06:37:34;;;;;;;2.55;2.00;;;;;16.00;96363.00;;;;8329063;28;20715;-71
2023/08/08 06:41:38;;;;;;;2.63;2.15;;;;;16.30;96362.00;;;;8333732;28;20682;-71
2023/08/08 06:45:42;;;;;;;2.13;1.95;;;;;16.80;96368.00;;;;8332289;28;20292;-68
2023/08/08 06:49:57;;;;;;;3.13;1.80;;;;;17.20;96368.00;;;;8335984;28;20262;-70
2023/08/08 06:54:03;;;;;;;2.03;1.92;;;;;17.40;96366.00;;;;8337411;28;20209;-73
2023/08/08 06:58:06;;;;;;;2.25;2.10;;;;;17.90;96370.00;;;;8332888;28;20213;-70
2023/08/08 07:02:14;;;;;;;3.45;1.90;;;;;18.30;96368.00;;;;8314466;28;20333;-70
2023/08/08 07:06:24;;;;;;;2.28;2.08;;;;;18.60;96373.00;;;;8334333;28;20193;-72
2023/08/08 07:10:29;;;;;;;2.15;1.95;;;;;18.90;96360.00;;;;8332454;28;20318;-71
2023/08/08 07:14:32;;;;;;;2.00;1.90;;;;;19.10;96364.00;;;;8331050;28;20723;-72
2023/08/08 07:18:35;;;;;;;2.47;2.17;;;;;19.30;96370.00;;;;8334835;28;20274;-74
2023/08/08 07:22:39;;;;;;;2.05;1.92;;;;;19.60;96373.00;;;;8334277;28;20215;-73
2023/08/08 07:26:43;;;;;;;2.15;1.73;;;;;19.40;96372.00;;;;8332649;28;20499;-73
2023/08/08 07:30:47;;;;;;;2.10;1.92;;;;;19.60;96376.00;;;;8323284;28;20288;-72
2023/08/08 07:34:50;;;;;;;2.72;1.90;;;;;20.00;96362.00;;;;8315447;28;20685;-71
2023/08/08 07:38:56;;;;;;;3.45;2.00;;;;;20.10;96361.00;;;;8335080;28;20209;-74
2023/08/08 07:43:05;;;;;;;3.17;1.80;;;;;19.90;96353.00;;;;8332748;28;20292;-74
2023/08/08 07:47:08;;;;;;;2.63;1.67;;;;;19.70;96360.00;;;;8322304;28;20291;-71
2023/08/08 07:51:15;;;;;;;1.60;1.50;;;;;19.90;96364.00;;;;8328682;28;20236;-72
2023/08/08 07:55:18;;;;;;;1.73;1.55;;;;;19.80;96360.00;;;;8327631;28;20284;-72
2023/08/08 07:59:27;;;;;;;1.85;1.60;;;;;19.50;96360.00;;;;8335359;28;20228;-73
2023/08/08 08:03:33;;;;;;;2.30;1.88;;;;;19.20;96368.00;;;;8327391;28;20307;-72
2023/08/08 08:07:37;;;;;;;2.75;1.98;;;;;18.90;96362.00;;;;8341155;28;20228;-74
2023/08/08 08:11:40;;;;;;;3.95;2.03;;;;;18.70;96367.00;;;;8341627;28;20670;-72
2023/08/08 08:15:49;;;;;;;2.50;1.85;;;;;19.00;96366.00;;;;8320682;28;20844;-75
2023/08/08 08:19:54;;;;;;;1.92;1.60;;;;;19.40;96353.00;;;;8341651;28;20228;-74
2023/08/08 08:23:59;;;;;;;4.05;2.03;;;;;19.30;96352.00;;;;8326923;28;20552;-72
2023/08/08 08:28:07;;;;;;;6.60;1.90;;;;;19.20;96356.00;;;;8340962;28;20254;-73
2023/08/08 08:32:14;;;;;;;1.83;1.73;;;;;19.30;96345.00;;;;8346063;28;20212;-76
2023/08/08 08:36:21;;;;;;;3.20;1.70;;;;;19.50;96338.00;;;;8328381;28;20638;-72
2023/08/08 08:40:24;;;;;;;2.92;1.67;;;;;19.80;96336.00;;;;8347027;28;20259;-72
2023/08/08 08:44:28;;;;;;;2.22;1.80;;;;;20.70;96331.00;;;;8340081;28;20280;-72
2023/08/08 08:48:33;;;;;;;3.55;1.80;;;;;21.30;96337.00;;;;8342905;28;20230;-73
2023/08/08 08:52:37;;;;;;;2.10;1.90;;;;;22.00;96332.00;;;;8328048;28;20276;-70
2023/08/08 08:56:45;;;;;;;2.47;1.75;;;;;22.40;96333.00;;;;8341569;28;20296;-72
2023/08/08 09:00:52;;;;;;;4.22;2.10;;;;;22.80;96340.00;;;;8341813;28;20283;-73
2023/08/08 09:04:58;;;;;;;2.97;1.80;;;;;23.20;96330.00;;;;8340229;28;20243;-72
2023/08/08 09:09:03;;;;;;;2.30;1.95;;;;;23.70;96332.00;;;;8311932;28;20267;-72
2023/08/08 09:13:18;;;;;;;8.40;1.88;;;;;23.80;96328.00;;;;8330307;28;20200;-73
2023/08/08 09:17:26;;;;;;;1.88;1.77;;;;;23.10;96336.00;;;;8328774;28;20291;-73
2023/08/08 09:21:50;;;;;;;3.47;1.75;;;;;22.60;96325.00;;;;8311397;28;20945;-75
2023/08/08 09:25:56;;;;;;;4.03;1.83;;;;;22.60;96317.00;;;;8341689;28;20320;-72
2023/08/08 09:30:02;;;;;;;2.15;1.55;;;;;22.10;96325.00;;;;8327947;28;20329;-71
2023/08/08 09:34:06;;;;;;;2.17;1.65;;;;;22.40;96324.00;;;;8334815;28;20201;-71
2023/08/08 09:38:10;;;;;;;3.63;1.77;;;;;22.20;96323.00;;;;8340590;28;20203;-72
2023/08/08 09:42:14;;;;;;;2.00;1.63;;;;;21.90;96317.00;;;;8329934;28;20200;-71
2023/08/08 09:46:20;;;;;;;2.25;1.63;;;;;22.10;96305.00;;;;8327886;28;20231;-71
2023/08/08 09:50:23;;;;;;;2.90;1.80;;;;;21.90;96312.00;;;;8336181;28;20299;-71
2023/08/08 09:54:29;;;;;;;2.40;1.52;;;;;22.10;96311.00;;;;8335184;28;20606;-72
2023/08/08 09:58:33;;;;;;;1.92;1.60;;;;;22.40;96304.00;;;;8335483;28;20634;-71
2023/08/08 10:02:36;;;;;;;1.77;1.67;;;;;23.00;96297.00;;;;8332652;28;20303;-72
2023/08/08 10:06:40;;;;;;;2.80;1.60;;;;;23.90;96304.00;;;;8286326;28;20212;-73
2023/08/08 10:10:51;;;;;;;2.90;1.80;;;;;24.30;96298.00;;;;8340025;28;20299;-74
2023/08/08 10:14:54;;;;;;;3.33;1.60;;;;;24.40;96292.00;;;;8319197;28;20202;-72
2023/08/08 10:18:59;;;;;;;1.88;1.77;;;;;24.20;96297.00;;;;8325810;28;20296;-74
2023/08/08 10:23:04;;;;;;;1.70;1.60;;;;;23.90;96300.00;;;;8331205;28;20244;-72
2023/08/08 10:27:08;;;;;;;3.03;1.60;;;;;23.60;96290.00;;;;8330108;28;21004;-73
2023/08/08 10:31:20;;;;;;;4.85;1.92;;;;;24.20;96296.00;;;;8317896;28;20220;-74
2023/08/08 10:35:24;;;;;;;2.92;1.65;;;;;24.10;96302.00;;;;8341831;28;20635;-72
2023/08/08 10:39:30;;;;;;;2.00;1.80;;;;;24.40;96293.00;;;;8332856;28;20292;-74
2023/08/08 10:43:36;;;;;;;1.63;1.52;;;;;24.70;96293.00;;;;8340524;28;20284;-72
2023/08/08 10:47:41;;;;;;;1.67;1.58;;;;;25.10;96291.00;;;;8316125;28;20202;-72
2023/08/08 10:51:46;;;;;;;1.70;1.60;;;;;25.30;96279.00;;;;8333256;28;20229;-72
2023/08/08 10:56:00;;;;;;;1.75;1.60;;;;;24.40;96284.00;;;;8335584;28;20209;-74
2023/08/08 11:00:21;;;;;;;2.05;1.70;;;;;24.10;96286.00;;;;8338875;28;20782;-73
2023/08/08 11:04:26;;;;;;;2.60;1.98;;;;;24.10;96284.00;;;;8331687;28;20232;-71
2023/08/08 11:08:34;;;;;;;1.92;1.70;;;;;23.80;96287.00;;;;8341335;28;20252;-73
2023/08/08 11:12:38;;;;;;;4.07;1.55;;;;;23.90;96294.00;;;;8331202;28;20832;-72
2023/08/08 11:16:45;;;;;;;1.95;1.73;;;;;23.60;96276.00;;;;8322914;28;20281;-74
2023/08/08 11:20:55;;;;;;;2.50;1.98;;;;;23.60;96271.00;;;;8323939;28;20241;-73
2023/08/08 11:25:16;;;;;;;1.63;1.50;;;;;23.90;96270.00;;;;8333499;28;20193;-73
2023/08/08 11:29:19;;;;;;;1.45;1.30;;;;;24.30;96277.00;;;;8325988;28;20312;-73
2023/08/08 11:33:24;;;;;;;2.00;1.80;;;;;24.30;96270.00;;;;8329549;28;20206;-72
2023/08/08 11:37:30;;;;;;;2.13;1.92;;;;;23.90;96258.00;;;;8314006;28;20651;-72
2023/08/08 11:41:33;;;;;;;1.73;1.60;;;;;24.50;96264.00;;;;8327661;28;20205;-73
2023/08/08 11:45:36;;;;;;;1.60;1.50;;;;;25.20;96269.00;;;;8331075;28;20201;-74
2023/08/08 11:49:45;;;;;;;3.33;1.60;;;;;26.10;96271.00;;;;8332650;28;20574;-73
2023/08/08 11:53:50;;;;;;;1.50;1.40;;;;;26.10;96268.00;;;;8314497;28;20289;-73
2023/08/08 11:58:00;;;;;;;1.92;1.70;;;;;25.60;96271.00;;;;8330630;28;20768;-73
2023/08/08 12:02:04;;;;;;;2.85;1.65;;;;;25.70;96267.00;;;;8330084;28;20679;-73
2023/08/08 12:06:14;;;;;;;2.72;1.63;;;;;25.60;96268.00;;;;8336054;28;20208;-75
2023/08/08 12:10:19;;;;;;;2.78;1.63;;;;;25.50;96264.00;;;;8330280;28;20279;-72
2023/08/08 12:14:25;;;;;;;3.13;1.70;;;;;25.60;96264.00;;;;8315217;28;20316;-74
2023/08/08 12:18:31;;;;;;;2.25;1.40;;;;;25.90;96255.00;;;;8314304;28;20252;-73
2023/08/08 12:22:35;;;;;;;3.70;1.85;;;;;26.00;96271.00;;;;8322048;28;20203;-72
2023/08/08 12:26:40;;;;;;;1.88;1.50;;;;;25.80;96260.00;;;;8342729;28;20205;-73
2023/08/08 12:30:43;;;;;;;2.05;1.60;;;;;25.70;96261.00;;;;8315826;28;20218;-75
2023/08/08 12:34:49;;;;;;;1.95;1.60;;;;;25.60;96250.00;;;;8316351;28;20209;-73
2023/08/08 12:38:54;;;;;;;1.70;1.58;;;;;25.20;96256.00;;;;8299835;28;20198;-73
2023/08/08 12:42:57;;;;;;;2.03;1.80;;;;;24.90;96247.00;;;;8336251;28;20625;-74
2023/08/08 12:47:01;;;;;;;1.70;1.60;;;;;24.70;96247.00;;;;8325401;28;20219;-74
2023/08/08 12:51:07;;;;;;;2.25;1.65;;;;;24.60;96237.00;;;;8346383;28;20634;-73
2023/08/08 12:55:17;;;;;;;1.42;1.38;;;;;24.70;96249.00;;;;8331737;28;20285;-72
2023/08/08 12:59:20;;;;;;;1.83;1.50;;;;;25.20;96249.00;;;;8332152;28;20213;-71
2023/08/08 13:03:23;;;;;;;1.35;1.25;;;;;25.10;96259.00;;;;8326073;28;20228;-73
2023/08/08 13:07:31;;;;;;;1.80;1.70;;;;;24.90;96257.00;;;;8331087;28;20231;-72
2023/08/08 13:11:40;;;;;;;1.67;1.58;;;;;24.90;96237.00;;;;8331821;28;20228;-73
2023/08/08 13:15:43;;;;;;;1.70;1.60;;;;;25.10;96240.00;;;;8342117;28;20786;-72
2023/08/08 13:19:48;;;;;;;3.45;1.52;;;;;25.00;96241.00;;;;8320888;28;20228;-73
2023/08/08 13:23:53;;;;;;;3.03;1.60;;;;;25.00;96236.00;;;;8338754;28;20507;-75
2023/08/08 13:28:03;;;;;;;4.43;1.83;;;;;25.10;96234.00;;;;8323854;28;20258;-72
2023/08/08 13:32:08;;;;;;;1.65;1.55;;;;;24.90;96239.00;;;;8343597;28;20228;-73
2023/08/08 13:36:12;;;;;;;2.30;1.70;;;;;24.80;96233.00;;;;8326521;28;20290;-76
2023/08/08 13:40:16;;;;;;;1.75;1.65;;;;;25.20;96240.00;;;;8332679;28;20232;-72
2023/08/08 13:44:26;;;;;;;2.17;1.30;;;;;25.50;96234.00;;;;8333369;28;20209;-74
2023/08/08 13:48:29;;;;;;;1.45;1.35;;;;;25.70;96242.00;;;;8329530;28;20284;-72
2023/08/08 13:52:35;;;;;;;1.48;1.30;;;;;25.80;96241.00;;;;8318300;28;20287;-70
2023/08/08 13:56:40;;;;;;;2.33;1.80;;;;;25.90;96254.00;;;;8336706;28;20297;-71
2023/08/08 14:00:44;;;;;;;3.17;1.83;;;;;26.00;96236.00;;;;8333140;28;20205;-70
2023/08/08 14:04:48;;;;;;;2.13;1.40;;;;;26.10;96239.00;;;;8319273;28;20225;-72
2023/08/08 14:08:53;;;;;;;2.42;1.80;;;;;26.20;96244.00;;;;8318127;28;20201;-71
2023/08/08 14:12:56;;;;;;;2.38;1.52;;;;;25.90;96233.00;;;;8324692;28;20757;-73
2023/08/08 14:17:03;;;;;;;1.90;1.75;;;;;25.60;96229.00;;;;8330690;28;20288;-73
2023/08/08 14:21:06;;;;;;;2.05;1.35;;;;;25.60;96219.00;;;;8328635;28;20215;-71
2023/08/08 14:25:10;;;;;;;2.33;1.70;;;;;25.60;96232.00;;;;8320819;28;20288;-71
2023/08/08 14:29:14;;;;;;;1.70;1.60;;;;;25.50;96220.00;;;;8312967;28;20679;-71
2023/08/08 14:33:21;;;;;;;1.88;1.70;;;;;25.30;96219.00;;;;8321174;28;20836;-70
2023/08/08 14:37:29;;;;;;;1.88;1.70;;;;;25.50;96232.00;;;;8337457;28;20271;-71
2023/08/08 14:41:33;;;;;;;2.88;1.90;;;;;25.50;96232.00;;;;8320500;28;20201;-73
2023/08/08 14:45:37;;;;;;;1.70;1.60;;;;;26.00;96233.00;;;;8322150;28;20213;-73
2023/08/08 14:49:43;;;;;;;2.33;1.65;;;;;26.10;96227.00;;;;8326667;28;20201;-71
2023/08/08 14:53:49;;;;;;;2.92;1.50;;;;;26.00;96236.00;;;;8330559;28;20235;-70
2023/08/08 14:57:52;;;;;;;1.45;1.33;;;;;25.80;96241.00;;;;8322457;28;20200;-70
2023/08/08 15:01:56;;;;;;;1.30;1.30;;;;;25.30;96245.00;;;;8319276;28;20197;-73
2023/08/08 15:06:01;;;;;;;1.55;1.25;;;;;25.10;96250.00;;;;8300076;28;20212;-68
2023/08/08 15:10:05;;;;;;;1.77;1.45;;;;;24.90;96248.00;;;;8338222;28;20958;-72
2023/08/08 15:14:13;;;;;;;1.70;1.60;;;;;25.10;96257.00;;;;8323224;28;20256;-75
2023/08/08 15:18:17;;;;;;;1.40;1.30;;;;;25.40;96261.00;;;;8311491;28;20236;-72
2023/08/08 15:22:22;;;;;;;1.40;1.35;;;;;25.50;96252.00;;;;8316538;28;20236;-70
2023/08/08 15:26:26;;;;;;;1.38;1.38;;;;;25.40;96246.00;;;;8321136;28;20256;-71
2023/08/08 15:30:30;;;;;;;1.52;1.50;;;;;25.20;96258.00;;;;8328489;28;20328;-71
2023/08/08 15:34:34;;;;;;;3.65;1.40;;;;;25.10;96261.00;;;;8336679;28;20209;-73
2023/08/08 15:38:42;;;;;;;1.48;1.48;;;;;24.80;96256.00;;;;8321490;28;20288;-72
2023/08/08 15:42:45;;;;;;;1.40;1.35;;;;;24.80;96261.00;;;;8345966;28;20288;-74
2023/08/08 15:46:49;;;;;;;1.30;1.30;;;;;24.60;96251.00;;;;8323422;28;20289;-70
2023/08/08 15:50:54;;;;;;;1.40;1.30;;;;;24.50;96253.00;;;;8330754;28;20229;-72
2023/08/08 15:54:58;;;;;;;2.28;1.45;;;;;24.50;96252.00;;;;8339033;28;20205;-72
2023/08/08 15:59:02;;;;;;;1.98;1.55;;;;;24.40;96248.00;;;;8340422;28;20604;-73
2023/08/08 16:03:05;;;;;;;1.30;1.30;;;;;24.30;96253.00;;;;8326905;28;20957;-72
2023/08/08 16:07:11;;;;;;;2.83;1.58;;;;;24.00;96251.00;;;;8329849;28;20288;-71
2023/08/08 16:11:16;;;;;;;1.65;1.40;;;;;23.80;96248.00;;;;8326346;28;20319;-72
2023/08/08 16:15:24;;;;;;;1.50;1.40;;;;;23.80;96245.00;;;;8330587;28;20220;-70
2023/08/08 16:19:32;;;;;;;1.52;1.30;;;;;23.70;96243.00;;;;8323242;28;20299;-72
2023/08/08 16:23:37;;;;;;;1.65;1.52;;;;;23.60;96246.00;;;;8327185;28;20974;-69
2023/08/08 16:27:42;;;;;;;1.30;1.30;;;;;23.60;96252.00;;;;8304314;28;20282;-73
2023/08/08 16:31:47;;;;;;;1.58;1.48;;;;;23.60;96246.00;;;;8334585;28;20224;-73
2023/08/08 16:35:51;;;;;;;3.72;1.60;;;;;23.70;96247.00;;;;8320723;28;20220;-78
2023/08/08 16:39:56;;;;;;;1.33;1.30;;;;;23.70;96239.00;;;;8334530;28;20213;-77
2023/08/08 16:44:04;;;;;;;2.08;1.65;;;;;23.50;96246.00;;;;8323338;28;20288;-76
2023/08/08 16:48:12;;;;;;;1.60;1.50;;;;;23.40;96243.00;;;;8327474;28;20276;-81
2023/08/08 16:52:18;;;;;;;1.58;1.48;;;;;23.30;96254.00;;;;8327776;28;20788;-73
2023/08/08 16:56:27;;;;;;;2.33;1.70;;;;;23.30;96245.00;;;;8331833;28;20285;-76
2023/08/08 17:00:31;;;;;;;1.85;1.60;;;;;23.20;96253.00;;;;8329702;28;20209;-73
2023/08/08 17:04:36;;;;;;;1.83;1.73;;;;;22.90;96254.00;;;;8331001;28;20232;-75
2023/08/08 17:08:41;;;;;;;1.65;1.55;;;;;22.80;96263.00;;;;8333088;28;20877;-74
2023/08/08 17:12:48;;;;;;;1.58;1.50;;;;;22.60;96266.00;;;;8327318;28;20684;-77
2023/08/08 17:16:53;;;;;;;1.42;1.38;;;;;22.70;96271.00;;;;8330813;28;20205;-71
2023/08/08 17:20:57;;;;;;;1.60;1.50;;;;;22.90;96263.00;;;;8323675;28;20557;-81
2023/08/08 17:25:00;;;;;;;5.45;1.80;;;;;23.30;96265.00;;;;8327783;28;20244;-75
2023/08/08 17:29:04;;;;;;;2.25;1.40;;;;;23.40;96268.00;;;;8329103;28;20206;-75
2023/08/08 17:33:09;;;;;;;1.45;1.35;;;;;23.40;96267.00;;;;8320984;28;20288;-75
2023/08/08 17:37:13;;;;;;;3.20;1.50;;;;;23.50;96263.00;;;;8323337;28;20734;-79
2023/08/08 17:41:25;;;;;;;1.45;1.45;;;;;23.50;96268.00;;;;8329919;28;20212;-77
2023/08/08 17:45:28;;;;;;;1.63;1.52;;;;;23.70;96264.00;;;;8346595;28;20313;-78
2023/08/08 17:49:34;;;;;;;1.60;1.50;;;;;23.40;96264.00;;;;8328259;28;20204;-79
2023/08/08 17:53:39;;;;;;;2.33;1.40;;;;;23.00;96266.00;;;;8334372;28;20304;-73
2023/08/08 17:57:42;;;;;;;1.48;1.48;;;;;22.60;96265.00;;;;8329376;28;20197;-80
2023/08/08 18:01:49;;;;;;;2.65;1.52;;;;;22.20;96274.00;;;;8319701;28;20212;-80
2023/08/08 18:05:58;;;;;;;2.90;1.90;;;;;22.00;96272.00;;;;8321128;28;20252;-73
2023/08/08 18:10:02;;;;;;;2.53;1.70;;;;;21.70;96277.00;;;;8317092;28;20198;-80
2023/08/08 18:14:06;;;;;;;2.25;1.70;;;;;21.60;96273.00;;;;8334725;28;20233;-79
2023/08/08 18:18:09;;;;;;;2.17;1.77;;;;;21.30;96284.00;;;;8325349;28;20305;-72
2023/08/08 18:22:14;;;;;;;5.32;1.80;;;;;21.00;96280.00;;;;8332487;28;20284;-80
2023/08/08 18:26:18;;;;;;;1.50;1.50;;;;;20.60;96283.00;;;;8331251;28;20284;-81
2023/08/08 18:30:22;;;;;;;2.50;1.75;;;;;20.30;96284.00;;;;8333518;28;20198;-79
2023/08/08 18:34:25;;;;;;;3.50;1.90;;;;;20.00;96285.00;;;;8330415;28;20339;-78
2023/08/08 18:38:32;;;;;;;1.88;1.52;;;;;19.60;96284.00;;;;8320274;28;20197;-73
2023/08/08 18:42:35;;;;;;;1.88;1.77;;;;;19.40;96287.00;;;;8339301;28;20566;-78
2023/08/08 18:46:45;;;;;;;2.08;1.80;;;;;19.30;96287.00;;;;8339446;28;20193;-75
2023/08/08 18:50:51;;;;;;;1.92;1.83;;;;;19.20;96287.00;;;;8330253;28;20289;-78
2023/08/08 18:54:58;;;;;;;1.98;1.88;;;;;19.10;96288.00;;;;8311667;28;20228;-78
2023/08/08 18:59:02;;;;;;;2.10;1.85;;;;;19.00;96293.00;;;;8332120;28;20567;-77
2023/08/08 19:03:05;;;;;;;5.05;1.88;;;;;18.90;96299.00;;;;8329959;28;20263;-74
2023/08/08 19:07:08;;;;;;;3.72;1.70;;;;;18.80;96293.00;;;;8334438;28;20197;-80
2023/08/08 19:11:13;;;;;;;3.13;1.80;;;;;18.70;96301.00;;;;8327395;28;20197;-78
2023/08/08 19:15:16;;;;;;;1.95;1.65;;;;;18.60;96299.00;;;;8336821;28;20228;-75
2023/08/08 19:19:19;;;;;;;3.35;2.08;;;;;18.40;96290.00;;;;8319332;28;20282;-75
2023/08/08 19:23:22;;;;;;;2.10;1.90;;;;;18.30;96300.00;;;;8330190;28;20229;-76
2023/08/08 19:27:28;;;;;;;3.67;2.22;;;;;18.10;96298.00;;;;8325628;28;20200;-72
2023/08/08 19:31:35;;;;;;;4.57;2.00;;;;;17.90;96297.00;;;;8322421;28;20233;-72
2023/08/08 19:35:38;;;;;;;2.17;2.00;;;;;17.70;96303.00;;;;8321955;28;20303;-74
2023/08/08 19:39:43;;;;;;;3.92;1.95;;;;;17.40;96301.00;;;;8327331;28;20209;-73
2023/08/08 19:43:49;;;;;;;3.38;2.03;;;;;17.20;96305.00;;;;8306930;28;20265;-76
2023/08/08 19:47:52;;;;;;;3.03;2.30;;;;;17.10;96301.00;;;;8318985;28;20201;-75
2023/08/08 19:51:56;;;;;;;3.13;2.60;;;;;17.10;96296.00;;;;8313736;28;20242;-75
2023/08/08 19:56:00;;;;;;;3.42;2.60;;;;;17.10;96300.00;;;;8335834;28;20196;-74
2023/08/08 20:00:06;;;;;;;2.22;2.10;;;;;17.10;96299.00;;;;8331677;28;20203;-72
2023/08/08 20:04:14;;;;;;;1.98;1.67;;;;;17.00;96302.00;;;;8328855;28;20229;-70
2023/08/08 20:08:18;;;;;;;3.20;2.90;;;;;17.00;96307.00;;;;8319758;28;20228;-76
2023/08/08 20:12:25;;;;;;;2.55;2.28;;;;;17.00;96304.00;;;;8344262;28;20259;-74
2023/08/08 20:16:30;;;;;;;5.85;2.65;;;;;17.00;96301.00;;;;8321608;28;20609;-76
2023/08/08 20:20:34;;;;;;;6.55;2.80;;;;;17.10;96304.00;;;;8337382;28;20201;-75
2023/08/08 20:24:39;;;;;;;2.13;1.92;;;;;17.10;96302.00;;;;8335192;28;20645;-74
2023/08/08 20:28:46;;;;;;;2.47;1.95;;;;;17.10;96305.00;;;;8347227;28;20197;-76